Time;durP1;ratioP1;P1;durP2;ratioP2;P2;SDS_P1;SDS_P2;PMS_P1;PMS_P2;Temp;Humidity;BMP_temperature;BMP_pressure;BME280_temperature;BME280_humidity;BME280_pressure;Samples;Min_cycle;Max_cycle;Signal;HPM_P1;HPM_P2
2022/03/22 00:02:23;;;;;;;51.40;31.85;;;;;;;6.46;93.87;102858.38;5236806;28;20040;-67
2022/03/22 00:04:54;;;;;;;49.90;31.40;;;;;;;6.47;94.59;102860.09;5249149;28;20029;-67
2022/03/22 00:07:27;;;;;;;50.63;31.98;;;;;;;6.41;94.68;102857.63;5239872;28;20491;-67
2022/03/22 00:09:58;;;;;;;49.30;31.92;;;;;;;6.39;94.37;102861.22;5234627;28;20040;-67
2022/03/22 00:12:30;;;;;;;54.13;31.77;;;;;;;6.44;94.01;102864.59;5241722;28;20382;-67
2022/03/22 00:15:03;;;;;;;46.30;32.00;;;;;;;6.36;94.86;102862.16;5243493;28;20411;-67
2022/03/22 00:17:36;;;;;;;53.05;33.03;;;;;;;6.33;94.58;102864.00;5244055;28;20107;-67
2022/03/22 00:20:10;;;;;;;53.13;32.70;;;;;;;6.30;94.82;102864.97;5242905;28;20112;-67
2022/03/22 00:22:41;;;;;;;50.20;32.40;;;;;;;6.30;95.02;102858.81;5240088;28;20472;-67
2022/03/22 00:25:15;;;;;;;52.47;33.72;;;;;;;6.29;94.85;102865.91;5237183;28;20100;-67
2022/03/22 00:27:51;;;;;;;;;;;;;;;6.37;93.16;102858.59;5235982;28;20133;-67
2022/03/22 00:30:28;;;;;;;50.95;32.13;;;;;;;6.23;95.03;102866.94;5245889;28;19924;-67
2022/03/22 00:33:02;;;;;;;52.40;33.38;;;;;;;6.23;94.92;102866.03;5242593;28;20025;-67
2022/03/22 00:35:36;;;;;;;53.47;32.78;;;;;;;6.16;95.57;102870.63;5238248;28;20075;-67
2022/03/22 00:38:16;;;;;;;51.93;32.50;;;;;;;6.22;95.61;102877.56;5245638;28;20467;-67
2022/03/22 00:40:47;;;;;;;52.15;32.88;;;;;;;6.16;95.81;102875.06;5235188;28;20637;-67
2022/03/22 00:43:19;;;;;;;51.38;33.60;;;;;;;6.13;95.64;102875.13;5235464;28;20475;-67
2022/03/22 00:45:50;;;;;;;47.55;32.00;;;;;;;6.11;95.58;102874.31;5237138;28;20021;-67
2022/03/22 00:48:22;;;;;;;51.70;33.03;;;;;;;6.02;95.61;102878.03;5246130;28;20029;-67
2022/03/22 00:50:53;;;;;;;56.78;33.17;;;;;;;6.06;96.16;102871.78;5235866;28;20058;-67
2022/03/22 00:53:24;;;;;;;51.28;32.25;;;;;;;6.04;96.13;102871.81;5247035;28;20021;-67
2022/03/22 00:55:56;;;;;;;50.20;31.38;;;;;;;5.99;96.28;102865.75;5239452;28;20086;-67
2022/03/22 00:58:27;;;;;;;51.67;31.88;;;;;;;6.00;96.71;102871.91;5258776;28;20063;-67
2022/03/22 01:00:59;;;;;;;55.20;33.50;;;;;;;5.98;96.69;102882.53;5236449;28;20036;-67
2022/03/22 01:03:30;;;;;;;48.08;31.27;;;;;;;5.94;96.23;102872.91;5233998;28;20505;-67
2022/03/22 01:06:02;;;;;;;48.85;30.90;;;;;;;5.97;96.52;102872.00;5239525;28;20036;-67
2022/03/22 01:08:34;;;;;;;47.47;31.23;;;;;;;5.88;97.17;102881.88;5239094;28;20058;-67
2022/03/22 01:11:05;;;;;;;50.42;31.65;;;;;;;5.90;97.19;102879.19;5241963;28;20029;-67
2022/03/22 01:13:36;;;;;;;52.60;32.63;;;;;;;5.87;97.31;102874.84;5244904;28;20025;-67
2022/03/22 01:16:08;;;;;;;54.95;34.03;;;;;;;5.86;97.69;102880.16;5240915;28;20057;-67
2022/03/22 01:18:39;;;;;;;52.05;33.15;;;;;;;5.85;97.46;102874.00;5235957;28;20090;-67
2022/03/22 01:21:10;;;;;;;47.30;31.85;;;;;;;5.83;97.46;102882.88;5234842;28;20042;-67
2022/03/22 01:23:41;;;;;;;53.70;31.67;;;;;;;5.80;97.09;102873.25;5235774;28;20415;-67
2022/03/22 01:26:14;;;;;;;53.15;32.30;;;;;;;5.80;97.40;102867.94;5234962;28;20032;-67
2022/03/22 01:28:45;;;;;;;47.78;32.55;;;;;;;5.75;97.76;102879.56;5237036;28;20029;-67
2022/03/22 01:31:17;;;;;;;44.65;29.60;;;;;;;5.76;97.48;102876.88;5236336;28;20048;-67
2022/03/22 01:33:48;;;;;;;52.17;30.20;;;;;;;5.77;97.97;102880.38;5234275;28;20116;-67
2022/03/22 01:36:19;;;;;;;46.28;30.33;;;;;;;5.70;98.01;102877.88;5244318;28;20124;-67
2022/03/22 01:38:52;;;;;;;47.65;30.63;;;;;;;5.72;97.77;102879.66;5250621;28;20036;-67
2022/03/22 01:41:24;;;;;;;47.78;31.58;;;;;;;5.70;97.99;102879.69;5234356;28;20049;-67
2022/03/22 01:43:55;;;;;;;47.17;30.73;;;;;;;5.73;98.26;102890.19;5235926;28;20156;-67
2022/03/22 01:46:27;;;;;;;46.95;30.33;;;;;;;5.66;98.46;102878.00;5236532;28;20475;-67
2022/03/22 01:48:58;;;;;;;44.42;29.75;;;;;;;5.66;98.39;102875.34;5239910;28;20037;-67
2022/03/22 01:51:33;;;;;;;45.92;29.25;;;;;;;5.65;98.77;102879.75;5236817;28;20132;-67
2022/03/22 01:54:05;;;;;;;47.28;30.38;;;;;;;5.63;98.38;102886.00;5233558;28;20036;-67
2022/03/22 01:56:36;;;;;;;47.60;29.98;;;;;;;5.64;98.78;102878.03;5235126;28;20423;-67
2022/03/22 01:59:07;;;;;;;43.28;28.50;;;;;;;5.68;99.14;102877.06;5235237;28;20065;-67
2022/03/22 02:07:34;;;;;;;44.97;27.10;;;;;;;5.68;98.78;102869.09;5238384;28;20419;-67
2022/03/22 02:10:06;;;;;;;40.15;27.40;;;;;;;5.67;98.94;102863.84;5235733;28;20029;-66
2022/03/22 02:12:38;;;;;;;41.65;27.40;;;;;;;5.66;99.03;102867.41;5235126;28;20078;-66
2022/03/22 02:15:12;;;;;;;44.05;27.65;;;;;;;5.70;99.06;102863.78;5235900;28;20057;-66
2022/03/22 02:17:46;;;;;;;39.75;25.90;;;;;;;5.63;99.09;102865.69;5237547;28;20035;-66
2022/03/22 02:20:18;;;;;;;42.65;26.73;;;;;;;5.59;98.28;102863.16;5240880;28;20032;-66
2022/03/22 02:23:24;;;;;;;36.88;25.60;;;;;;;5.56;98.52;102864.13;5238268;28;20418;-66
2022/03/22 02:25:55;;;;;;;43.90;26.55;;;;;;;5.58;98.83;102858.75;5234982;28;20039;-66
2022/03/22 02:28:27;;;;;;;39.25;26.92;;;;;;;5.59;98.76;102857.88;5240350;28;21321;-66
2022/03/22 02:30:59;;;;;;;40.22;26.48;;;;;;;5.61;98.84;102854.25;5239061;28;20044;-66
2022/03/22 02:33:30;;;;;;;40.95;25.98;;;;;;;5.57;99.33;102854.38;5247241;28;20206;-66
2022/03/22 02:36:01;;;;;;;38.67;25.38;;;;;;;5.60;99.01;102859.59;5241239;28;20368;-66
2022/03/22 02:38:32;;;;;;;38.67;25.80;;;;;;;5.55;99.25;102862.34;5241615;28;20029;-66
2022/03/22 02:41:05;;;;;;;41.08;25.30;;;;;;;5.52;98.93;102857.13;5236570;28;20126;-66
2022/03/22 02:43:36;;;;;;;36.63;24.20;;;;;;;5.53;98.54;102866.81;5235549;28;20060;-66
2022/03/22 02:46:08;;;;;;;34.88;23.77;;;;;;;5.50;98.45;102861.56;5239927;28;20041;-66
2022/03/22 02:48:39;;;;;;;37.35;23.35;;;;;;;5.47;98.53;102862.53;5238510;28;20129;-66
2022/03/22 02:51:11;;;;;;;36.00;24.88;;;;;;;5.43;98.31;102873.22;5241405;28;20032;-66
2022/03/22 02:53:43;;;;;;;34.63;23.52;;;;;;;5.37;98.05;102861.00;5238076;28;20403;-66
2022/03/22 02:56:14;;;;;;;40.42;24.35;;;;;;;5.36;98.57;102856.59;5244996;28;20025;-66
2022/03/22 02:58:46;;;;;;;39.22;25.42;;;;;;;5.33;98.76;102869.94;5245791;28;20025;-66
2022/03/22 03:01:17;;;;;;;42.67;25.95;;;;;;;5.33;99.04;102864.63;5249597;28;20112;-66
2022/03/22 03:03:49;;;;;;;36.33;24.65;;;;;;;5.32;99.78;102867.31;5242404;28;20032;-67
2022/03/22 03:06:20;;;;;;;39.72;25.08;;;;;;;5.27;99.40;102864.72;5239957;28;20116;-67
2022/03/22 03:08:51;;;;;;;37.88;25.13;;;;;;;5.24;99.12;102870.97;5239242;28;20044;-67
2022/03/22 03:11:23;;;;;;;36.92;24.55;;;;;;;5.23;99.64;102868.34;5237657;28;20120;-67
2022/03/22 03:16:48;;;;;;;35.05;24.13;;;;;;;5.17;99.27;102874.66;5243658;28;20115;-67
2022/03/22 03:19:20;;;;;;;39.72;25.02;;;;;;;5.16;99.53;102865.00;5237586;28;20040;-67
2022/03/22 03:21:51;;;;;;;38.35;24.88;;;;;;;5.12;99.57;102868.59;5235798;28;20083;-67
2022/03/22 03:24:22;;;;;;;34.90;23.75;;;;;;;5.23;99.30;102876.28;5235126;28;20649;-67
2022/03/22 03:26:54;;;;;;;36.60;24.35;;;;;;;5.09;99.13;102871.31;5236853;28;20127;-67
2022/03/22 03:29:25;;;;;;;40.60;25.58;;;;;;;5.03;99.02;102864.38;5240353;28;20991;-67
2022/03/22 03:31:56;;;;;;;38.70;24.88;;;;;;;5.00;98.93;102868.84;5239438;28;20037;-67
2022/03/22 03:34:28;;;;;;;38.53;24.70;;;;;;;5.00;99.35;102869.72;5239019;28;20037;-67
2022/03/22 03:36:59;;;;;;;36.88;24.17;;;;;;;5.00;99.75;102872.34;5236033;28;20550;-67
2022/03/22 03:39:30;;;;;;;36.85;24.92;;;;;;;5.00;100.00;102880.28;5237976;28;20382;-67
2022/03/22 03:42:02;;;;;;;39.53;25.60;;;;;;;4.96;99.66;102883.91;5242195;28;20107;-67
2022/03/22 03:47:25;;;;;;;39.13;24.63;;;;;;;4.90;99.66;102884.91;5246516;28;20396;-67
2022/03/22 03:49:59;;;;;;;39.40;25.02;;;;;;;4.83;99.82;102893.88;5239009;28;20029;-67
2022/03/22 03:52:33;;;;;;;38.00;23.42;;;;;;;4.79;99.94;102889.53;5243503;28;20410;-67
2022/03/22 03:55:06;;;;;;;35.97;23.77;;;;;;;4.80;99.76;102885.97;5236654;28;20030;-67
2022/03/22 03:57:37;;;;;;;40.33;24.67;;;;;;;4.76;99.45;102891.38;5236073;28;20381;-67
2022/03/22 04:00:09;;;;;;;39.45;24.83;;;;;;;4.80;99.44;102899.22;5239338;28;20095;-67
2022/03/22 04:02:41;;;;;;;41.17;24.52;;;;;;;4.68;99.57;102895.03;5246851;28;20035;-67
2022/03/22 04:05:12;;;;;;;38.58;23.80;;;;;;;4.69;99.63;102890.59;5237767;28;20550;-67
2022/03/22 04:07:43;;;;;;;40.38;24.42;;;;;;;4.67;99.97;102897.69;5245628;28;20025;-67
2022/03/22 04:10:15;;;;;;;37.28;24.15;;;;;;;4.72;99.63;102899.34;5234134;28;20040;-67
2022/03/22 04:12:46;;;;;;;37.05;24.35;;;;;;;4.58;100.00;102908.44;5244490;28;20031;-67
2022/03/22 04:15:17;;;;;;;36.03;23.75;;;;;;;4.60;100.00;102901.34;5246153;28;20537;-67
2022/03/22 04:17:50;;;;;;;35.33;22.92;;;;;;;4.60;100.00;102899.59;5240288;28;20376;-67
2022/03/22 04:20:22;;;;;;;39.65;23.75;;;;;;;4.53;100.00;102894.44;5250336;28;20033;-67
2022/03/22 04:22:53;;;;;;;34.95;23.15;;;;;;;4.50;100.00;102901.50;5237573;28;20083;-67
2022/03/22 04:25:24;;;;;;;37.65;23.60;;;;;;;4.52;100.00;102904.13;5240970;28;20036;-67
2022/03/22 04:33:36;;;;;;;37.08;24.27;;;;;;;4.46;100.00;102905.09;5238734;28;20033;-67
2022/03/22 04:36:07;;;;;;;34.33;22.42;;;;;;;4.41;100.00;102906.09;5236571;28;20033;-67
2022/03/22 04:38:39;;;;;;;35.65;22.90;;;;;;;4.41;100.00;102900.81;5235425;28;20422;-67
2022/03/22 04:41:11;;;;;;;32.72;22.67;;;;;;;4.35;100.00;102893.84;5235225;28;20029;-67
2022/03/22 04:43:42;;;;;;;33.40;22.88;;;;;;;4.34;100.00;102901.81;5238883;28;20483;-67
2022/03/22 04:46:18;;;;;;;34.45;22.73;;;;;;;4.39;100.00;102898.22;5234554;28;20169;-67
2022/03/22 04:48:49;;;;;;;35.03;22.77;;;;;;;4.36;100.00;102902.69;5236533;28;20052;-67
2022/03/22 04:57:00;;;;;;;32.08;21.95;;;;;;;4.22;100.00;102917.00;5247448;28;20041;-67
2022/03/22 04:59:32;;;;;;;36.38;23.15;;;;;;;4.23;100.00;102921.34;5237541;28;20024;-67
2022/03/22 05:02:03;;;;;;;37.03;23.10;;;;;;;4.25;100.00;102921.34;5238081;28;20040;-67
2022/03/22 05:04:35;;;;;;;36.97;23.98;;;;;;;4.18;100.00;102919.69;5237408;28;20125;-67
2022/03/22 05:07:06;;;;;;;39.45;23.92;;;;;;;4.18;100.00;102911.75;5267644;28;20033;-67
2022/03/22 05:09:38;;;;;;;37.40;24.30;;;;;;;4.19;100.00;102919.66;5234572;28;20060;-67
2022/03/22 05:12:13;;;;;;;37.72;23.55;;;;;;;4.19;100.00;102913.53;5251927;28;20033;-67
2022/03/22 05:14:50;;;;;;;34.90;23.40;;;;;;;4.16;100.00;102924.13;5235850;28;20095;-67
2022/03/22 05:17:23;;;;;;;35.67;23.20;;;;;;;4.10;100.00;102922.44;5242284;28;20104;-67
2022/03/22 05:19:54;;;;;;;35.20;23.30;;;;;;;4.16;100.00;102925.03;5237009;28;20542;-67
2022/03/22 05:22:25;;;;;;;41.25;23.80;;;;;;;4.09;100.00;102932.16;5236692;28;20127;-67
2022/03/22 05:24:58;;;;;;;39.10;23.48;;;;;;;4.12;100.00;102928.59;5233922;28;20087;-67
2022/03/22 05:27:29;;;;;;;39.28;23.52;;;;;;;4.14;100.00;102934.72;5236112;28;20112;-67
2022/03/22 05:30:00;;;;;;;38.53;23.63;;;;;;;4.06;100.00;102937.47;5235383;28;20044;-67
2022/03/22 05:32:32;;;;;;;36.03;23.05;;;;;;;4.10;100.00;102936.56;5233717;28;20486;-67
2022/03/22 05:35:03;;;;;;;38.58;23.80;;;;;;;4.05;100.00;102941.03;5233021;28;20488;-67
2022/03/22 05:37:35;;;;;;;39.70;24.20;;;;;;;4.04;100.00;102936.63;5235215;28;20111;-67
2022/03/22 05:40:07;;;;;;;38.33;23.15;;;;;;;4.06;100.00;102939.25;5240192;28;20518;-67
2022/03/22 05:42:40;;;;;;;39.85;25.33;;;;;;;4.01;100.00;102943.72;5237631;28;20475;-67
2022/03/22 05:45:12;;;;;;;41.97;24.88;;;;;;;4.11;100.00;102948.00;5241350;28;20029;-67
2022/03/22 05:47:43;;;;;;;37.78;24.40;;;;;;;4.13;100.00;102951.47;5244544;28;20399;-67
2022/03/22 05:50:14;;;;;;;40.17;24.42;;;;;;;4.04;100.00;102941.91;5247568;28;20039;-67
2022/03/22 05:52:49;;;;;;;39.40;24.45;;;;;;;4.04;100.00;102947.19;5247013;28;20037;-67
2022/03/22 05:55:20;;;;;;;38.88;23.27;;;;;;;4.08;100.00;102943.59;5251578;28;20039;-67
2022/03/22 05:57:52;;;;;;;34.40;23.30;;;;;;;4.03;100.00;102937.53;5256794;28;20032;-67
2022/03/22 06:00:23;;;;;;;38.28;24.38;;;;;;;4.08;100.00;102940.09;5247589;28;20033;-66
2022/03/22 06:02:55;;;;;;;39.10;24.80;;;;;;;4.10;100.00;102944.47;5271183;28;20024;-67
2022/03/22 06:05:28;;;;;;;38.30;24.30;;;;;;;4.15;100.00;102947.03;5266610;28;20047;-67
2022/03/22 06:07:59;;;;;;;36.10;24.47;;;;;;;4.15;100.00;102952.31;5261611;28;20059;-67
2022/03/22 06:10:31;;;;;;;38.45;24.08;;;;;;;4.20;100.00;102954.88;5250808;28;20029;-67
2022/03/22 06:13:03;;;;;;;41.63;24.70;;;;;;;4.24;100.00;102951.31;5258655;28;20037;-67
2022/03/22 06:15:34;;;;;;;40.08;24.20;;;;;;;4.31;100.00;102961.75;5255672;28;20057;-67
2022/03/22 06:18:09;;;;;;;38.33;25.58;;;;;;;4.34;100.00;102960.84;5269644;28;20038;-67
2022/03/22 06:20:44;;;;;;;;;;;;;;;4.36;100.00;102960.81;5252425;28;20032;-67
2022/03/22 06:23:17;;;;;;;38.65;24.48;;;;;;;4.41;100.00;102959.84;5259678;28;20365;-67
2022/03/22 06:25:48;;;;;;;39.83;24.83;;;;;;;4.46;100.00;102959.75;5245867;28;20025;-67
2022/03/22 06:28:19;;;;;;;39.30;25.35;;;;;;;4.55;100.00;102961.38;5260644;28;20464;-67
2022/03/22 06:30:51;;;;;;;44.03;25.77;;;;;;;4.56;100.00;102957.81;5259432;28;20100;-67
2022/03/22 06:33:24;;;;;;;41.67;25.65;;;;;;;4.61;100.00;102962.13;5259311;28;20435;-67
2022/03/22 06:35:55;;;;;;;43.95;26.50;;;;;;;4.67;100.00;102959.38;5252683;28;20028;-67
2022/03/22 06:38:26;;;;;;;41.80;25.02;;;;;;;4.83;100.00;102961.75;5259979;28;20386;-67
2022/03/22 06:40:58;;;;;;;37.30;24.02;;;;;;;4.81;100.00;102967.06;5242794;28;20033;-67
2022/03/22 06:43:30;;;;;;;40.90;25.33;;;;;;;4.93;100.00;102963.34;5243667;28;20211;-67
2022/03/22 06:46:01;;;;;;;41.88;25.60;;;;;;;5.00;100.00;102964.94;5242285;28;20483;-67
2022/03/22 06:48:32;;;;;;;38.22;24.98;;;;;;;5.07;100.00;102973.66;5236977;28;20194;-67
2022/03/22 06:51:04;;;;;;;42.03;25.73;;;;;;;5.19;100.00;102975.19;5238909;28;20036;-68
2022/03/22 06:53:35;;;;;;;43.50;25.42;;;;;;;5.26;100.00;102976.81;5240477;28;20591;-67
2022/03/22 06:56:06;;;;;;;46.00;25.00;;;;;;;5.34;100.00;102972.22;5238484;28;20465;-67
2022/03/22 06:58:39;;;;;;;41.40;25.55;;;;;;;5.42;100.00;102972.06;5251619;28;20032;-67
2022/03/22 07:01:10;;;;;;;45.10;26.77;;;;;;;5.52;100.00;102978.91;5250485;28;20074;-67
2022/03/22 07:03:42;;;;;;;42.95;25.55;;;;;;;5.58;100.00;102977.91;5249155;28;20064;-67
2022/03/22 07:06:14;;;;;;;38.63;25.20;;;;;;;5.63;100.00;102971.63;5254841;28;20025;-67
2022/03/22 07:08:45;;;;;;;38.90;24.88;;;;;;;5.74;100.00;102978.47;5247412;28;20025;-67
2022/03/22 07:14:06;;;;;;;44.70;24.67;;;;;;;5.90;98.66;102979.88;5252718;28;20072;-67
2022/03/22 07:16:37;;;;;;;45.63;26.08;;;;;;;6.04;98.48;102982.22;5248991;28;20108;-67
2022/03/22 07:19:10;;;;;;;43.67;25.02;;;;;;;6.15;97.79;102984.63;5252881;28;20064;-67
2022/03/22 07:21:45;;;;;;;40.53;25.73;;;;;;;6.21;97.25;102992.44;5249702;28;20033;-67
2022/03/22 07:24:21;;;;;;;39.45;25.42;;;;;;;6.27;97.20;102987.88;5253529;28;20029;-67
2022/03/22 07:26:52;;;;;;;46.00;27.90;;;;;;;6.34;96.45;102985.94;5251025;28;20369;-67
2022/03/22 07:29:24;;;;;;;38.90;24.73;;;;;;;6.47;95.50;102986.53;5248735;28;20033;-67
2022/03/22 07:31:56;;;;;;;42.38;25.83;;;;;;;6.61;95.09;102987.03;5253477;28;20024;-67
2022/03/22 07:34:28;;;;;;;35.38;25.42;;;;;;;6.68;94.25;102985.09;5248650;28;20029;-67
2022/03/22 07:36:59;;;;;;;42.83;26.20;;;;;;;6.84;93.75;102991.75;5251311;28;20493;-67
2022/03/22 07:39:34;;;;;;;40.63;26.00;;;;;;;6.94;93.12;102991.50;5248559;28;20044;-67
2022/03/22 07:42:05;;;;;;;39.50;25.38;;;;;;;7.05;92.49;102989.44;5253977;28;21632;-67
2022/03/22 07:44:38;;;;;;;49.05;25.95;;;;;;;7.16;92.03;102981.19;5246597;28;20113;-67
2022/03/22 07:47:09;;;;;;;41.47;24.73;;;;;;;7.27;91.13;102992.38;5250692;28;20037;-67
2022/03/22 07:55:20;;;;;;;36.45;24.15;;;;;;;7.59;89.71;102979.94;5247961;28;20044;-67
2022/03/22 07:57:51;;;;;;;35.53;22.60;;;;;;;7.81;87.10;102988.16;5249494;28;20025;-67
2022/03/22 08:00:23;;;;;;;35.65;25.10;;;;;;;7.90;88.74;102994.97;5249175;28;20067;-67
2022/03/22 08:03:03;;;;;;;37.33;23.40;;;;;;;7.98;87.95;102996.47;5242575;28;20032;-67
2022/03/22 08:05:35;;;;;;;38.10;23.95;;;;;;;8.14;86.49;103004.84;5249329;28;20021;-67
2022/03/22 08:08:07;;;;;;;39.20;24.35;;;;;;;8.29;85.71;102991.97;5251043;28;20028;-68
2022/03/22 08:10:38;;;;;;;35.80;23.77;;;;;;;8.53;84.99;102996.50;5250467;28;20024;-68
2022/03/22 08:13:09;;;;;;;33.17;22.85;;;;;;;8.69;83.90;102994.22;5248105;28;20029;-67
2022/03/22 08:15:41;;;;;;;36.20;24.58;;;;;;;8.82;83.69;102995.53;5251057;28;20044;-67
2022/03/22 08:18:12;;;;;;;36.78;23.10;;;;;;;9.05;82.47;102990.31;5247602;28;20170;-67
2022/03/22 08:20:44;;;;;;;36.33;22.20;;;;;;;9.16;81.05;103002.31;5250999;28;20025;-67
2022/03/22 08:23:15;;;;;;;35.30;22.17;;;;;;;9.30;79.72;103004.50;5252688;28;20060;-68
2022/03/22 08:25:49;;;;;;;37.67;22.23;;;;;;;9.35;79.56;102997.19;5250074;28;20236;-68
2022/03/22 08:28:21;;;;;;;35.80;22.30;;;;;;;9.47;79.39;103001.19;5251025;28;20037;-68
2022/03/22 08:30:52;;;;;;;36.05;22.52;;;;;;;9.61;77.62;103001.56;5249418;28;20433;-68
2022/03/22 08:33:23;;;;;;;31.85;21.65;;;;;;;9.82;77.10;103007.88;5249204;28;20021;-68
2022/03/22 08:35:55;;;;;;;35.58;21.70;;;;;;;9.87;77.69;103001.50;5249322;28;20031;-68
2022/03/22 08:38:26;;;;;;;33.15;22.08;;;;;;;10.14;75.54;103005.75;5251250;28;20050;-68
2022/03/22 08:40:58;;;;;;;34.78;21.75;;;;;;;10.20;73.70;103001.94;5249633;28;20036;-68
2022/03/22 08:43:30;;;;;;;34.88;21.95;;;;;;;10.41;73.52;103010.91;5251621;28;20115;-68
2022/03/22 08:46:01;;;;;;;31.33;20.92;;;;;;;10.53;73.16;103005.06;5247871;28;20036;-68
2022/03/22 08:48:34;;;;;;;32.75;20.88;;;;;;;10.59;72.13;102998.63;5247230;28;20032;-68
2022/03/22 08:51:06;;;;;;;34.40;20.70;;;;;;;10.83;70.80;103001.16;5253217;28;20486;-68
2022/03/22 08:53:37;;;;;;;32.17;20.73;;;;;;;10.89;70.92;102998.22;5249593;28;20045;-68
2022/03/22 08:56:09;;;;;;;35.03;21.85;;;;;;;10.98;72.13;103001.38;5246543;28;20029;-68
2022/03/22 08:58:41;;;;;;;30.45;19.42;;;;;;;11.16;69.15;102996.16;5247797;28;20025;-68
2022/03/22 09:01:12;;;;;;;30.73;20.08;;;;;;;11.24;67.78;103004.72;5247876;28;20155;-68
2022/03/22 09:06:07;;;;;;;32.17;19.55;;;;;;;11.35;66.89;102991.72;5251060;28;20021;-68
2022/03/22 09:06:37;;;;;;;33.20;20.88;;;;;;;11.51;66.73;103001.72;5245357;28;20036;-68
2022/03/22 09:09:10;;;;;;;29.20;20.58;;;;;;;11.48;68.19;102999.19;5246807;28;20039;-68
2022/03/22 09:11:41;;;;;;;34.65;21.98;;;;;;;11.64;69.43;103004.69;5251533;28;20496;-68
2022/03/22 09:14:12;;;;;;;32.08;19.88;;;;;;;11.80;64.61;102999.50;5249225;28;20048;-68
2022/03/22 09:16:44;;;;;;;32.08;20.52;;;;;;;11.92;63.32;102999.81;5252763;28;20123;-68
2022/03/22 09:19:15;;;;;;;29.80;18.92;;;;;;;11.90;64.75;102992.81;5251627;28;20029;-68
2022/03/22 09:21:47;;;;;;;30.90;19.85;;;;;;;12.00;64.39;102993.22;5249113;28;20493;-68
2022/03/22 09:24:18;;;;;;;31.17;20.13;;;;;;;12.15;60.82;102995.16;5245776;28;20036;-68
2022/03/22 09:26:49;;;;;;;29.52;19.30;;;;;;;12.25;61.13;102999.09;5249288;28;20542;-69
2022/03/22 09:29:21;;;;;;;33.17;21.88;;;;;;;12.17;63.91;102993.28;5250745;28;20032;-68
2022/03/22 09:31:52;;;;;;;34.65;20.73;;;;;;;12.35;63.20;102988.84;5251971;28;20120;-69
2022/03/22 09:34:25;;;;;;;31.38;21.75;;;;;;;12.54;61.03;102984.28;5249936;28;20021;-68
2022/03/22 09:36:56;;;;;;;31.10;21.25;;;;;;;12.75;59.97;102990.38;5239024;28;20021;-68
2022/03/22 09:39:27;;;;;;;31.92;21.60;;;;;;;12.75;59.53;102992.16;5248198;28;20033;-69
2022/03/22 09:42:03;;;;;;;34.60;21.80;;;;;;;12.91;58.88;102997.63;5250876;28;20026;-67
2022/03/22 09:44:35;;;;;;;32.40;21.52;;;;;;;13.00;59.05;102988.22;5246661;28;20037;-67
2022/03/22 09:47:07;;;;;;;34.65;20.73;;;;;;;13.11;58.14;103001.91;5244233;28;20041;-68
2022/03/22 09:49:38;;;;;;;32.08;21.25;;;;;;;13.20;56.71;102990.72;5246743;28;20222;-67
2022/03/22 09:52:11;;;;;;;32.97;20.42;;;;;;;13.35;56.52;102994.44;5247580;28;20040;-67
2022/03/22 09:54:42;;;;;;;32.67;21.20;;;;;;;13.36;56.47;102993.47;5246206;28;20033;-68
2022/03/22 09:57:14;;;;;;;32.15;20.63;;;;;;;13.39;57.53;102984.41;5251713;28;20563;-67
2022/03/22 09:59:45;;;;;;;29.17;21.30;;;;;;;13.48;56.52;102990.13;5248163;28;20736;-67
2022/03/22 10:02:27;;;;;;;30.80;21.55;;;;;;;13.46;59.58;102986.66;5250151;28;20039;-68
2022/03/22 10:04:58;;;;;;;34.90;22.05;;;;;;;13.55;56.69;102990.66;5248557;28;20037;-67
2022/03/22 10:07:30;;;;;;;33.15;22.60;;;;;;;13.68;57.34;102990.84;5250091;28;20398;-68
2022/03/22 10:10:05;;;;;;;34.85;21.73;;;;;;;13.78;53.75;102983.16;5247078;28;20039;-68
2022/03/22 10:12:38;;;;;;;31.75;20.90;;;;;;;13.85;53.47;102984.53;5250390;28;20083;-68
2022/03/22 10:15:14;;;;;;;30.05;20.77;;;;;;;14.04;53.79;102979.00;5251652;28;20090;-68
2022/03/22 10:17:46;;;;;;;32.60;21.13;;;;;;;14.06;51.46;102985.16;5248487;28;20033;-68
2022/03/22 10:20:24;;;;;;;32.55;21.20;;;;;;;14.14;54.70;102974.84;5249867;28;20486;-68
2022/03/22 10:22:57;;;;;;;31.25;21.73;;;;;;;13.95;54.32;102979.53;5249784;28;20435;-68
2022/03/22 10:25:31;;;;;;;28.73;19.23;;;;;;;14.23;51.20;102982.38;5247533;28;20029;-68
2022/03/22 10:28:04;;;;;;;32.20;20.42;;;;;;;14.12;52.43;102982.09;5250208;28;20032;-68
2022/03/22 10:30:36;;;;;;;31.02;20.63;;;;;;;14.28;50.95;102980.25;5248002;28;20179;-68
2022/03/22 10:33:09;;;;;;;31.17;20.80;;;;;;;14.49;51.50;102975.44;5247692;28;20032;-68
2022/03/22 10:35:45;;;;;;;31.70;20.58;;;;;;;14.54;52.05;102977.88;5245061;28;20620;-67
2022/03/22 10:38:19;;;;;;;32.85;20.77;;;;;;;14.55;49.08;102973.34;5250856;28;20029;-67
2022/03/22 10:40:51;;;;;;;28.63;20.83;;;;;;;14.56;49.94;102962.53;5240725;28;21435;-67
2022/03/22 10:43:26;;;;;;;31.05;20.58;;;;;;;14.67;50.20;102970.00;5252261;28;20490;-67
2022/03/22 10:46:04;;;;;;;35.95;20.88;;;;;;;14.68;49.95;102960.97;5251429;28;20135;-67
2022/03/22 10:48:37;;;;;;;29.50;20.75;;;;;;;14.75;48.45;102966.84;5253948;28;20025;-67
2022/03/22 10:51:09;;;;;;;32.65;19.88;;;;;;;14.75;49.19;102961.47;5250752;28;20040;-68
2022/03/22 10:53:40;;;;;;;29.08;18.55;;;;;;;14.88;48.69;102957.94;5255526;28;20032;-67
2022/03/22 10:56:12;;;;;;;34.13;19.38;;;;;;;14.81;50.16;102953.88;5252405;28;20098;-67
2022/03/22 10:58:44;;;;;;;29.25;19.35;;;;;;;15.02;48.93;102959.78;5254032;28;20079;-67
2022/03/22 11:01:19;;;;;;;30.90;19.38;;;;;;;15.04;47.36;102957.84;5246625;28;20120;-67
2022/03/22 11:03:56;;;;;;;30.50;18.70;;;;;;;15.17;48.54;102951.69;5245729;28;20103;-67
2022/03/22 11:06:29;;;;;;;31.55;18.85;;;;;;;15.16;47.43;102950.84;5248596;28;20033;-67
2022/03/22 11:09:01;;;;;;;32.13;18.23;;;;;;;15.38;47.32;102950.38;5249819;28;20041;-67
2022/03/22 11:11:35;;;;;;;31.27;18.38;;;;;;;15.45;49.28;102959.75;5248175;28;20028;-67
2022/03/22 11:14:06;;;;;;;29.87;18.50;;;;;;;15.56;48.62;102953.72;5248459;28;20034;-67
2022/03/22 11:16:39;;;;;;;27.90;17.40;;;;;;;15.55;47.35;102959.19;5251089;28;20706;-68
2022/03/22 11:19:11;;;;;;;30.90;17.30;;;;;;;15.60;47.30;102941.78;5253513;28;20036;-67
2022/03/22 11:21:43;;;;;;;30.25;18.08;;;;;;;15.86;47.70;102941.97;5245296;28;20025;-68
2022/03/22 11:24:22;;;;;;;28.17;17.00;;;;;;;15.78;46.88;102953.22;5249647;28;20120;-68
2022/03/22 11:26:56;;;;;;;25.58;15.93;;;;;;;16.06;46.56;102948.72;5248539;28;20136;-68
2022/03/22 11:29:32;;;;;;;27.38;17.00;;;;;;;15.94;46.04;102938.78;5254194;28;20086;-68
2022/03/22 11:34:57;;;;;;;25.48;17.08;;;;;;;16.16;44.69;102939.03;5252994;28;20139;-68
2022/03/22 11:37:30;;;;;;;28.63;17.27;;;;;;;16.26;44.82;102942.88;5254322;28;20079;-68
2022/03/22 11:42:54;;;;;;;27.20;16.52;;;;;;;16.23;45.24;102937.69;5254988;28;20132;-68
2022/03/22 11:45:26;;;;;;;24.30;15.57;;;;;;;16.32;44.12;102936.22;5251861;28;20490;-68
2022/03/22 11:48:07;;;;;;;25.92;16.50;;;;;;;16.40;44.61;102935.69;5247354;28;20287;-68
2022/03/22 11:50:45;;;;;;;28.80;16.40;;;;;;;16.49;43.77;102934.19;5250825;28;20347;-68
2022/03/22 11:53:18;;;;;;;24.08;15.25;;;;;;;16.60;43.82;102928.91;5253497;28;20053;-68
2022/03/22 11:55:52;;;;;;;25.63;16.52;;;;;;;16.62;44.70;102930.53;5250404;28;20039;-68
2022/03/22 11:58:27;;;;;;;26.73;17.27;;;;;;;16.72;45.12;102932.59;5251873;28;20025;-68
2022/03/22 12:01:01;;;;;;;25.38;16.83;;;;;;;16.52;44.98;102920.50;5252296;28;20112;-68
2022/03/22 12:03:33;;;;;;;;;;;;;;;16.61;47.28;102930.66;5254712;28;20052;-68
2022/03/22 12:06:11;;;;;;;26.42;17.27;;;;;;;16.99;43.26;102922.63;5284210;28;19928;-68
2022/03/22 12:08:43;;;;;;;28.08;17.83;;;;;;;16.86;43.89;102924.47;5253945;28;20036;-69
2022/03/22 12:11:16;;;;;;;24.92;15.90;;;;;;;17.02;41.79;102916.13;5251455;28;20049;-68
2022/03/22 12:13:50;;;;;;;24.50;16.47;;;;;;;17.02;42.34;102910.75;5252254;28;20491;-68
2022/03/22 12:16:26;;;;;;;;;;;;;;;16.92;44.60;102913.22;5254064;28;20115;-68